WetterOnline ( https://www.wetteronline.de )

Wetter aktuell Oberhausen

Aktuelles Wetter: Hohenpeißenberg (986m)

6-stündlich | Neueste Meldungen
Ortszeit Temperatur Wetter
Di, 07.07. 2:00 10.4° C bewölkt
Mo, 06.07. 20:00 12.3° C bedeckt
Mo, 06.07. 14:00 11.5° C leichter Regen
Mo, 06.07. 8:00 16.9° C wolkenlos
Mo, 06.07. 2:00 17.4° C wolkenlos
So, 05.07. 20:00 22.0° C wolkenlos
So, 05.07. 14:00 22.7° C fast wolkenlos
So, 05.07. 8:00 15.2° C wolkenlos
Ortszeit Temperatur Wetter
Di, 07.07. 2:30 10.3° C bewölkt
Di, 07.07. 2:20 10.3° C bewölkt
Di, 07.07. 2:10 10.4° C bewölkt
Di, 07.07. 2:00 10.4° C bewölkt
Di, 07.07. 1:50 10.4° C bewölkt
Di, 07.07. 1:40 10.5° C bewölkt
Di, 07.07. 1:30 10.5° C bewölkt
Di, 07.07. 1:00 10.8° C bewölkt
Ortszeit Relative Feuchte Sichtweite
Di, 07.07. 2:00 63% 50 km
Mo, 06.07. 20:00 75% 55 km
Mo, 06.07. 14:00 96% 13 km
Mo, 06.07. 8:00 81% 50 km
Mo, 06.07. 2:00 80% 65 km
So, 05.07. 20:00 61% >70 km
So, 05.07. 14:00 51% >70 km
So, 05.07. 8:00 71% 55 km
Ortszeit Relative Feuchte Sichtweite
Di, 07.07. 2:30 66% 50 km
Di, 07.07. 2:20 66% -
Di, 07.07. 2:10 64% -
Di, 07.07. 2:00 63% 50 km
Di, 07.07. 1:50 63% -
Di, 07.07. 1:40 63% -
Di, 07.07. 1:30 63% 60 km
Di, 07.07. 1:00 64% 60 km
Ortszeit Niederschlagsmenge Niederschlagsart
Di, 07.07. 2:00 0.1 l/m2 in 6 Std. Regen
Mo, 06.07. 20:00 2 l/m2 in 12 Std. Regen
Mo, 06.07. 14:00 0.9 l/m2 in 6 Std. Regen
Mo, 06.07. 8:00 0.0 l/m2 in 12 Std. -
Mo, 06.07. 2:00 0.0 l/m2 in 6 Std. -
So, 05.07. 20:00 0.0 l/m2 in 12 Std. -
So, 05.07. 14:00 0.0 l/m2 in 6 Std. -
So, 05.07. 8:00 0.0 l/m2 in 12 Std. -
Ortszeit Niederschlagsmenge Niederschlagsart
Di, 07.07. 2:30 0.0 l/m2 in 1 Std. -
Di, 07.07. 2:20 keine Meldung -
Di, 07.07. 2:10 keine Meldung -
Di, 07.07. 2:00 0.0 l/m2 in 1 Std. Regen
Di, 07.07. 1:50 keine Meldung -
Di, 07.07. 1:40 keine Meldung -
Di, 07.07. 1:30 0.0 l/m2 in 1 Std. -
Di, 07.07. 1:00 0.0 l/m2 in 1 Std. -
Ortszeit Stärke Spitze Richtung
km/h Bft. km/h Grad Sektor
Di, 07.07. 2:00 7 2 36 330° NW
Mo, 06.07. 20:00 14 3 29 360° N
Mo, 06.07. 14:00 14 3 58 350° N
Mo, 06.07. 8:00 25 4 54 230° SW
Mo, 06.07. 2:00 25 4 43 240° SW
So, 05.07. 20:00 15 3 43 260° W
So, 05.07. 14:00 25 4 43 250° W
So, 05.07. 8:00 22 4 43 230° SW
Ortszeit Stärke Spitze Richtung
km/h Bft. km/h Grad Sektor
Di, 07.07. 2:30 7 2 11 270° W
Di, 07.07. 2:20 7 2 - 270° W
Di, 07.07. 2:10 6 1 - 310° NW
Di, 07.07. 2:00 7 2 18 330° NW
Di, 07.07. 1:50 7 2 - 330° NW
Di, 07.07. 1:40 7 2 - 330° NW
Di, 07.07. 1:30 7 2 18 330° NW
Di, 07.07. 1:00 7 2 18 320° NW
Ortszeit Untergrenze Bedeckung Gattung
total tief tief mittel hoch
Di, 07.07. 2:00 2100 m 7/8 6/8 - - -
Mo, 06.07. 20:00 1410 m 8/8 8/8 - - -
Mo, 06.07. 14:00 270 m 8/8 7/8 - - -
Mo, 06.07. 8:00 7800 m 0/8 0/8 - - -
Mo, 06.07. 2:00 - 0/8 0/8 - - -
So, 05.07. 20:00 - 0/8 0/8 - - -
So, 05.07. 14:00 2100 m 1/8 1/8 - - -
So, 05.07. 8:00 - 0/8 0/8 - - -
Ortszeit Bedeckungsgrad in Achtel und Wolkenuntergrenze
Di, 07.07. 2:30 6(1350m) 7(1800m)
Di, 07.07. 2:20 6(1350m) 7(1800m)
Di, 07.07. 2:10 4(1320m) 7(2100m)
Di, 07.07. 2:00 7(2100m) 6(2100m)
Di, 07.07. 1:50 7(2100m)
Di, 07.07. 1:40 7(1800m)
Di, 07.07. 1:30 6(1800m) 7(2100m)
Di, 07.07. 1:00 7(1800m)
Ortszeit Stationsdruck (hPa) Tendenz (hPa in 3 Std.)
Di, 07.07. 2:00 909 0,0
Mo, 06.07. 20:00 907 + 1,4
Mo, 06.07. 14:00 905 + 0,6
Mo, 06.07. 8:00 904 - 0,9
Mo, 06.07. 2:00 906 - 0,2
So, 05.07. 20:00 906 - 0,5
So, 05.07. 14:00 908 - 0,8
So, 05.07. 8:00 908 - 0,1
Ortszeit Stationsdruck (hPa) Tendenz (hPa in 3 Std.)
Di, 07.07. 2:30 909 - 0,2
Di, 07.07. 2:20 909 keine Meldung
Di, 07.07. 2:10 909 keine Meldung
Di, 07.07. 2:00 909 0,0
Di, 07.07. 1:50 909 keine Meldung
Di, 07.07. 1:40 909 keine Meldung
Di, 07.07. 1:30 909 + 0,3
Di, 07.07. 1:00 909 + 0,6
Ortszeit Schneehöhe (cm)
Di, 07.07. 2:00 -
Mo, 06.07. 20:00 -
Mo, 06.07. 14:00 -
Mo, 06.07. 8:00 -
Mo, 06.07. 2:00 -
So, 05.07. 20:00 -
So, 05.07. 14:00 -
So, 05.07. 8:00 -
Ortszeit Schneehöhe (cm)
Di, 07.07. 2:30 -
Di, 07.07. 2:20 -
Di, 07.07. 2:10 -
Di, 07.07. 2:00 -
Di, 07.07. 1:50 -
Di, 07.07. 1:40 -
Di, 07.07. 1:30 -
Di, 07.07. 1:00 -
Link zu dieser Seite / Seite empfehlen

Das Wetter in ...